Data for 09/16/2018

Time Sea-Level Adjusted Pressure Absolute Pressure Temperature Relative Humidity Dew Point   
(mb) (inHg) (mb) (inHg) (C) (F) (%) (C) (F)
00:05 1018 30.06 847 25.01 9 48.2 82 6.1 43
00:10 1018 30.06 847 25.01 8.7 47.6 84 6.2 43.1
00:15 1018 30.06 847 25.01 8.5 47.3 85 6.1 43
00:20 1018 30.06 848 25.04 8.5 47.2 85 6.2 43.1
00:25 1018 30.06 848 25.04 8.4 47.1 86 6.2 43.2
00:30 1018 30.06 848 25.04 8.3 46.9 86 6.1 42.9
00:35 1018 30.06 847 25.01 8.2 46.8 85 5.8 42.5
00:40 1018 30.06 847 25.01 7.8 46.1 86 5.6 42.2
00:45 1018 30.06 847 25.01 7.6 45.6 87 5.5 41.9
00:50 1018 30.06 847 25.01 7.5 45.4 87 5.4 41.7
00:55 1018 30.06 847 25.01 7.3 45.1 87 5.3 41.6
01:00 1018 30.06 847 25.01 7.2 45 87 5.1 41.3
01:05 1018 30.06 847 25.01 7.1 44.9 86 5 40.9
01:10 1018 30.06 847 25.01 7.1 44.9 86 5 41.1
01:15 1018 30.06 847 25.01 7 44.7 87 5 40.9
01:20 1018 30.06 847 25.01 6.9 44.4 87 4.9 40.8
01:25 1018 30.06 847 25.01 6.7 44.1 88 4.8 40.7
01:30 1018 30.06 847 25.01 6.7 44 88 4.8 40.6
01:35 1018 30.06 847 25.01 6.7 44 88 4.8 40.6
01:40 1018 30.06 847 25.01 6.5 43.8 88 4.7 40.5
01:45 1018 30.06 847 25.01 6.5 43.6 88 4.7 40.5
01:50 1018 30.06 847 25.01 6.4 43.6 89 4.7 40.4
01:55 1018 30.06 847 25.01 6.5 43.7 88 4.6 40.4
02:00 1018 30.06 847 25.01 6.4 43.6 88 4.6 40.3
02:05 1018 30.06 847 25.01 6.3 43.4 89 4.6 40.3
02:10 1018 30.06 847 25.01 6.4 43.5 89 4.7 40.4
02:15 1018 30.06 847 25.01 6.6 43.9 88 4.7 40.5
02:20 1018 30.06 847 25.01 6.7 44.1 87 4.6 40.4
02:25 1018 30.06 847 25.01 6.4 43.6 88 4.5 40.2
02:30 1018 30.06 847 25.01 6.2 43.1 88 4.4 39.9
02:35 1018 30.06 847 25.01 5.9 42.5 89 4.2 39.6
02:40 1018 30.06 847 25.01 5.7 42.2 89 4 39.2
02:45 1018 30.06 847 25.01 5.6 42.1 90 4.1 39.3
02:50 1018 30.06 847 25.01 5.8 42.4 89 4.1 39.3
02:55 1018 30.06 847 25.01 5.6 42.1 89 4 39.2
03:00 1018 30.06 847 25.01 5.5 41.9 89 3.9 39
03:05 1018 30.06 847 25.01 5.3 41.5 90 3.7 38.7
03:10 1018 30.06 847 25.01 5.1 41.2 90 3.6 38.5
03:15 1018 30.06 847 25.01 5 41 90 3.5 38.4
03:20 1018 30.06 847 25.01 4.9 40.9 90 3.5 38.3
03:25 1018 30.06 847 25.01 4.9 40.8 90 3.5 38.3
03:30 1018 30.06 847 25.01 5 41 91 3.6 38.5
03:35 1018 30.06 847 25.01 5.3 41.5 90 3.7 38.7
03:40 1018 30.06 847 25.01 5.3 41.6 89 3.7 38.7
03:45 1018 30.06 847 25.01 5.3 41.6 89 3.7 38.7
03:50 1018 30.06 847 25.01 5.4 41.7 89 3.7 38.6
03:55 1018 30.06 847 25.01 5.3 41.6 88 3.6 38.4
04:00 1018 30.06 847 25.01 5.4 41.8 88 3.6 38.4
04:05 1018 30.06 847 25.01 5.5 41.9 87 3.6 38.4
04:10 1018 30.06 847 25.01 5.5 41.8 87 3.5 38.3
04:15 1018 30.06 847 25.01 5.4 41.8 87 3.5 38.2
04:20 1018 30.06 847 25.01 5.5 41.8 87 3.5 38.4
04:25 1018 30.06 847 25.01 5.4 41.8 87 3.5 38.3
04:30 1018 30.06 847 25.01 5.4 41.7 87 3.5 38.3
04:35 1018 30.06 847 25.01 5.3 41.6 87 3.4 38.1
04:40 1018 30.06 847 25.01 5.1 41.2 88 3.4 38
04:45 1018 30.06 847 25.01 5.2 41.4 87 3.2 37.8
04:50 1018 30.06 847 25.01 5.4 41.8 87 3.4 38.1
04:55 1018 30.06 847 25.01 5.8 42.5 84 3.4 38.1
05:00 1018 30.06 847 25.01 5.9 42.6 84 3.4 38.2
05:05 1018 30.06 847 25.01 5.8 42.4 84 3.4 38.1
05:10 1018 30.06 847 25.01 5.6 42.1 86 3.5 38.3
05:15 1018 30.06 847 25.01 5.6 42 86 3.4 38.2
05:20 1018 30.06 847 25.01 5.3 41.6 87 3.4 38.1
05:25 1018 30.06 847 25.01 5.2 41.4 87 3.3 37.9
05:30 1018 30.06 847 25.01 5.2 41.4 88 3.3 38
05:35 1018 30.06 847 25.01 5.5 41.9 86 3.4 38.1
05:40 1018 30.06 847 25.01 5.6 42 86 3.4 38.1
05:45 1018 30.06 847 25.01 5.5 41.8 85 3.2 37.8
05:50 1018 30.06 847 25.01 5.6 42.1 84 3.1 37.6
05:55 1018 30.06 847 25.01 5.7 42.3 83 3 37.5
06:00 1018 30.06 847 25.01 5.7 42.2 83 3 37.4
06:05 1018 30.06 847 25.01 5.7 42.2 83 2.9 37.3
06:10 1018 30.06 847 25.01 5.8 42.4 82 2.9 37.2
06:15 1018 30.06 847 25.01 5.9 42.6 82 3 37.4
06:20 1018 30.06 847 25.01 6.1 42.9 80 2.9 37.3
06:25 1018 30.06 847 25.01 6.4 43.6 79 3.1 37.6
06:30 1018 30.06 847 25.01 6.6 43.9 79 3.2 37.8
06:35 1018 30.06 847 25.01 6.7 44.1 77 3.1 37.5
06:40 1018 30.06 847 25.01 6.7 44.1 77 3 37.4
06:45 1018 30.06 847 25.01 6.8 44.2 76 2.9 37.2
06:50 1018 30.06 847 25.01 6.8 44.3 76 2.8 37.1
06:55 1018 30.06 847 25.01 7 44.6 76 3.1 37.5
07:00 1018 30.06 847 25.01 7.1 44.7 76 3.1 37.6
07:05 1018 30.06 847 25.01 7.1 44.8 75 3 37.3
07:10 1018 30.06 847 25.01 7.1 44.7 77 3.3 37.9
07:15 1018 30.06 847 25.01 7.1 44.7 76 3.2 37.7
07:20 1018 30.06 847 25.01 7.3 45.1 77 3.5 38.2
07:25 1018 30.06 847 25.01 7.7 45.9 76 3.7 38.7
07:30 1018 30.06 847 25.01 8.3 46.9 72 3.5 38.4
07:35 1018 30.06 847 25.01 8.5 47.4 74 4.1 39.5
07:40 1018 30.06 847 25.01 9 48.2 73 4.5 40.1
07:45 1018 30.06 847 25.01 9.2 48.6 70 4.1 39.3
07:50 1018 30.06 847 25.01 9.5 49.1 69 4.1 39.4
07:55 1018 30.06 847 25.01 9.5 49 70 4.3 39.7
08:00 1018 30.06 847 25.01 9.6 49.3 70 4.5 40.1
08:05 1018 30.06 847 25.01 10.2 50.3 68 4.6 40.3
08:10 1018 30.06 847 25.01 10.2 50.3 68 4.6 40.2
08:15 1018 30.06 847 25.01 10.6 51.2 68 4.9 40.9
08:20 1018 30.06 847 25.01 10.8 51.5 66 4.8 40.7
08:25 1018 30.06 847 25.01 11.1 51.9 64 4.6 40.4
08:30 1018 30.06 847 25.01 11.4 52.5 63 4.7 40.4
08:35 1018 30.06 847 25.01 11.7 53.1 64 5.1 41.2
08:40 1018 30.06 847 25.01 11.8 53.2 64 5.2 41.3
08:45 1018 30.06 847 25.01 11.8 53.2 64 5.3 41.5
08:50 1018 30.06 847 25.01 11.6 52.8 66 5.5 41.9
08:55 1018 30.06 847 25.01 11.9 53.3 66 5.8 42.4
09:00 1018 30.06 847 25.01 12.2 53.9 63 5.4 41.7
09:05 1018 30.06 847 25.01 12.2 53.9 62 5.3 41.5
09:10 1018 30.06 847 25.01 12.5 54.5 63 5.7 42.2
09:15 1018 30.06 847 25.01 12.2 54 64 5.6 42.1
09:20 1018 30.06 847 25.01 13 55.4 59 5.3 41.5
09:25 1018 30.06 847 25.01 12.9 55.2 61 5.7 42.2
09:30 1018 30.06 847 25.01 13 55.3 61 5.6 42.1
09:35 1018 30.06 847 25.01 13.6 56.5 56 5.2 41.3
09:40 1018 30.06 847 25.01 13.9 57.1 56 5.3 41.5
09:45 1018 30.06 847 25.01 13.6 56.6 56 5 41.1
09:50 1018 30.06 847 25.01 14.3 57.7 54 5.1 41.1
09:55 1018 30.06 847 25.01 14.6 58.3 53 5.3 41.5
10:00 1018 30.06 847 25.01 14.6 58.2 54 5.6 42
10:05 1018 30.06 847 25.01 15.1 59.2 53 5.7 42.3
10:10 1018 30.06 847 25.01 14.9 58.8 54 5.8 42.4
10:15 1018 30.06 847 25.01 15 59 55 6.2 43.2
10:20 1018 30.06 847 25.01 15.2 59.4 56 6.6 43.9
10:25 1018 30.06 847 25.01 15.4 59.8 54 6.3 43.3
10:30 1017 30.03 847 25.01 15.2 59.4 53 5.8 42.5
10:35 1017 30.03 847 25.01 14.6 58.3 54 5.5 41.9
10:40 1017 30.03 847 25.01 14.6 58.2 52 5 41.1
10:45 1017 30.03 846 24.98 15.4 59.8 52 5.8 42.4
10:50 1017 30.03 846 24.98 15.1 59.3 52 5.3 41.6
10:55 1017 30.03 846 24.98 15.9 60.6 48 4.9 40.8
11:00 1017 30.03 846 24.98 16.3 61.3 48 5.4 41.7
11:05 1017 30.03 846 24.98 17 62.5 47 5.7 42.3
11:10 1017 30.03 846 24.98 17.1 62.8 46 5.5 41.9
11:15 1017 30.03 846 24.98 17 62.5 44 4.7 40.5
11:20 1017 30.03 846 24.98 17.4 63.3 42 4.6 40.2
11:25 1017 30.03 846 24.98 17.7 63.8 43 5.1 41.2
11:30 1017 30.03 846 24.98 17.3 63.1 47 6 42.8
11:35 1017 30.03 846 24.98 16.7 62.1 47 5.5 41.9
11:40 1017 30.03 846 24.98 16.5 61.8 47 5.2 41.4
11:45 1017 30.03 846 24.98 17 62.5 47 5.7 42.2
11:50 1017 30.03 846 24.98 17.1 62.8 44 4.8 40.6
11:55 1016 30 846 24.98 18.6 65.4 41 5.3 41.6
12:00 1016 30 846 24.98 17.8 64.1 45 5.9 42.6
12:05 1016 30 846 24.98 17.8 64 41 4.5 40.1
12:10 1016 30 846 24.98 19 66.2 39 4.9 40.9
12:15 1016 30 846 24.98 18.5 65.4 42 5.6 42
12:20 1016 30 845 24.95 19 66.2 37 4.3 39.7
12:25 1016 30 845 24.95 20.1 68.2 36 4.7 40.4
12:30 1016 30 845 24.95 19.8 67.7 37 4.8 40.6
12:35 1016 30 845 24.95 20.3 68.5 35 4.6 40.2
12:40 1016 30 845 24.95 19.2 66.6 38 4.5 40.2
12:45 1016 30 845 24.95 19.7 67.5 37 4.6 40.3
12:50 1016 30 845 24.95 20.3 68.6 37 5.3 41.5
12:55 1016 30 845 24.95 21.1 70 34 4.7 40.5
13:00 1016 30 845 24.95 21.2 70.1 34 4.9 40.9
13:05 1016 30 845 24.95 20.9 69.6 36 5.5 41.9
13:10 1016 30 845 24.95 20.7 69.2 35 4.7 40.5
13:15 1016 30 845 24.95 20.7 69.3 34 4.5 40.2
13:20 1016 30 845 24.95 21.7 71 32 4.6 40.3
13:25 1016 30 845 24.95 22.4 72.2 32 5 41
13:30 1015 29.97 845 24.95 22.1 71.8 30 3.7 38.7
13:35 1015 29.97 845 24.95 20.7 69.3 32 3.7 38.6
13:40 1015 29.97 844 24.92 20.7 69.3 33 3.9 39
13:45 1015 29.97 844 24.92 21.7 71 32 4.4 39.9
13:50 1015 29.97 844 24.92 22.6 72.7 27 3.1 37.6
13:55 1015 29.97 844 24.92 22.8 73 32 5.2 41.4
14:00 1015 29.97 844 24.92 21.3 70.4 32 4.1 39.3
14:05 1015 29.97 844 24.92 21.6 70.9 29 2.9 37.2
14:10 1015 29.97 844 24.92 21.9 71.5 28 3 37.3
14:15 1015 29.97 844 24.92 22.4 72.4 27 2.5 36.4
14:20 1015 29.97 844 24.92 22.7 72.8 26 2.2 35.9
14:25 1015 29.97 844 24.92 22.4 72.4 26 2 35.7
14:30 1014 29.94 844 24.92 22.8 73 25 1.8 35.2
14:35 1015 29.97 844 24.92 23.5 74.2 24 1.7 35.1
14:40 1014 29.94 844 24.92 23.6 74.5 24 2.2 36
14:45 1014 29.94 844 24.92 23.2 73.8 24 1.8 35.2
14:50 1015 29.97 844 24.92 24 75.1 23 1.8 35.2
14:55 1015 29.97 844 24.92 24.2 75.6 22 1.5 34.7
15:00 1015 29.97 844 24.92 24.3 75.8 22 1.7 35
15:05 1014 29.94 844 24.92 24.1 75.4 22 1.4 34.5
15:10 1014 29.94 844 24.92 23.9 75.1 23 1.5 34.8
15:15 1014 29.94 844 24.92 24 75.1 22 1.4 34.5
15:20 1014 29.94 844 24.92 23.8 74.9 22 1.1 33.9
15:25 1015 29.97 844 24.92 23.8 74.8 22 1.2 34.2
15:30 1015 29.97 844 24.92 24 75.1 23 2 35.6
15:35 1015 29.97 844 24.92 23.3 73.9 25 2.1 35.7
15:40 1015 29.97 844 24.92 22.7 72.8 25 1.8 35.2
15:45 1015 29.97 844 24.92 22.5 72.5 24 1.2 34.2
15:50 1015 29.97 844 24.92 22.9 73.2 25 2 35.5
15:55 1015 29.97 844 24.92 22.4 72.3 26 2 35.6
16:00 1015 29.97 844 24.92 22.3 72.2 25 1.5 34.8
16:05 1015 29.97 844 24.92 22.4 72.3 24 1 33.9
16:10 1015 29.97 844 24.92 22.6 72.6 24 0.9 33.6
16:15 1015 29.97 844 24.92 22.5 72.4 23 0.6 33.1
16:20 1015 29.97 844 24.92 22.2 71.9 24 1.1 33.9
16:25 1015 29.97 844 24.92 22.3 72.1 24 0.8 33.5
16:30 1015 29.97 844 24.92 22.6 72.7 23 0.4 32.6
16:35 1015 29.97 844 24.92 22.5 72.5 22 0.2 32.3
16:40 1015 29.97 844 24.92 22.4 72.3 23 0.7 33.2
16:45 1015 29.97 844 24.92 22.1 71.8 23 0.1 32.2
16:50 1015 29.97 844 24.92 22.3 72.1 23 0.2 32.3
16:55 1015 29.97 844 24.92 22.6 72.6 24 0.9 33.6
17:00 1015 29.97 844 24.92 23.3 73.9 22 0.7 33.2
17:05 1015 29.97 844 24.92 22.9 73.2 22 0 32.1
17:10 1015 29.97 844 24.92 23.3 74 21 0.3 32.5
17:15 1015 29.97 844 24.92 23.6 74.5 22 0.8 33.4
17:20 1015 29.97 844 24.92 23.6 74.4 24 1.9 35.4
17:25 1015 29.97 844 24.92 22.8 73.1 23 0.8 33.4
17:30 1015 29.97 844 24.92 22.5 72.6 22 0.1 32.2
17:35 1015 29.97 844 24.92 22.4 72.4 23 0.2 32.4
17:40 1015 29.97 844 24.92 22.4 72.3 22 -0.4 31.2
17:45 1015 29.97 844 24.92 22.5 72.5 23 0.5 32.9
17:50 1015 29.97 844 24.92 22.2 72 26 1.8 35.3
17:55 1015 29.97 844 24.92 21.5 70.6 28 2.3 36.2
18:00 1015 29.97 844 24.92 20.9 69.7 27 1.4 34.5
18:05 1015 29.97 844 24.92 21 69.7 25 0.2 32.4
18:10 1015 29.97 844 24.92 21.1 70 24 -0.3 31.4
18:15 1015 29.97 844 24.92 21.1 69.9 27 1.7 35.1
18:20 1015 29.97 844 24.92 20.6 69.1 26 0.4 32.7
18:25 1015 29.97 844 24.92 20.7 69.2 27 1.4 34.5
18:30 1015 29.97 844 24.92 20.6 69 27 1.3 34.3
18:35 1015 29.97 844 24.92 20.1 68.1 29 1.7 35
18:40 1015 29.97 844 24.92 19.4 66.9 34 3.3 37.9
18:45 1015 29.97 844 24.92 18.9 66.1 31 1.6 35
18:50 1015 29.97 844 24.92 18.8 65.8 32 1.7 35.1
18:55 1015 29.97 844 24.92 18.2 64.8 32 1.2 34.2
19:00 1015 29.97 844 24.92 17.8 64.1 33 1.3 34.3
19:05 1015 29.97 844 24.92 17.5 63.6 31 0.3 32.6
19:10 1015 29.97 844 24.92 17.5 63.5 31 0.4 32.7
19:15 1015 29.97 844 24.92 17.4 63.3 31 0.1 32.1
19:20 1015 29.97 844 24.92 17.1 62.8 30 -0.5 31.2
19:25 1015 29.97 844 24.92 16.9 62.4 29 -1 30.2
19:30 1015 29.97 844 24.92 17 62.5 24 -3.7 25.3
19:35 1015 29.97 844 24.92 18 64.4 24 -2.8 27
19:40 1015 29.97 844 24.92 18.1 64.7 22 -3.9 25
19:45 1015 29.97 845 24.95 18.3 64.9 18 -6.4 20.5
19:50 1015 29.97 845 24.95 18.5 65.3 19 -5.7 21.8
19:55 1015 29.97 845 24.95 18.4 65 19 -5.6 21.9
20:00 1015 29.97 845 24.95 18.4 65.2 17 -6.7 19.9
20:05 1015 29.97 845 24.95 18.7 65.6 15 -8.3 17.1
20:10 1015 29.97 845 24.95 19.2 66.6 13 -9.8 14.4
20:15 1015 29.97 845 24.95 19.6 67.2 13 -9.9 14.3
20:20 1016 30 845 24.95 19.8 67.6 12 -10.3 13.4
20:25 1016 30 845 24.95 19.9 67.7 17 -6 21.2
20:30 1016 30 845 24.95 18.5 65.3 22 -3.8 25.2
20:35 1016 30 845 24.95 16.7 62 27 -2.3 27.9
20:40 1016 30 845 24.95 15.7 60.2 29 -2 28.4
20:45 1016 30 845 24.95 15.7 60.2 30 -1.9 28.6
20:50 1016 30 845 24.95 16.4 61.4 30 -1 30.1
20:55 1016 30 846 24.98 16.1 61 34 0.3 32.6
21:00 1016 30 846 24.98 15.8 60.4 37 1.1 34
21:05 1017 30.03 846 24.98 15.5 59.8 39 1.8 35.3
21:10 1017 30.03 846 24.98 15.1 59.1 41 2.1 35.8
21:15 1017 30.03 846 24.98 14.8 58.7 43 2.4 36.4
21:20 1017 30.03 846 24.98 14.7 58.5 43 2.5 36.5
21:25 1017 30.03 846 24.98 14.4 58 45 2.6 36.7
21:30 1017 30.03 846 24.98 14 57.2 46 2.7 36.8
21:35 1017 30.03 846 24.98 13.7 56.7 45 2.2 35.9
21:40 1017 30.03 846 24.98 13.9 57 44 1.9 35.5
21:45 1017 30.03 846 24.98 14 57.2 42 1.4 34.6
21:50 1017 30.03 847 25.01 13.9 56.9 43 1.4 34.6
21:55 1017 30.03 847 25.01 13.3 55.9 45 1.7 35.1
22:00 1017 30.03 847 25.01 13.1 55.5 48 2.5 36.4
22:05 1018 30.06 847 25.01 13 55.4 50 2.9 37.2
22:10 1018 30.06 847 25.01 13.1 55.5 50 2.9 37.3
22:15 1018 30.06 847 25.01 13.2 55.8 48 2.4 36.3
22:20 1018 30.06 847 25.01 13.3 55.9 52 3.7 38.7
22:25 1018 30.06 847 25.01 12.9 55.3 56 4.5 40
22:30 1018 30.06 847 25.01 12.7 54.8 57 4.5 40.1
22:35 1018 30.06 847 25.01 12.6 54.7 57 4.5 40
22:40 1018 30.06 847 25.01 12.7 54.9 58 4.8 40.7
22:45 1018 30.06 847 25.01 12.7 54.9 59 5 41.1
22:50 1018 30.06 847 25.01 12.9 55.3 59 5.2 41.3
22:55 1018 30.06 848 25.04 12.9 55.2 60 5.4 41.7
23:00 1019 30.09 848 25.04 12.6 54.7 62 5.6 42
23:05 1019 30.09 848 25.04 12.4 54.3 63 5.6 42.1
23:10 1019 30.09 848 25.04 12.2 53.9 64 5.7 42.2
23:15 1019 30.09 848 25.04 11.9 53.5 66 5.8 42.5
23:20 1019 30.09 848 25.04 11.8 53.2 66 5.8 42.4
23:25 1019 30.09 848 25.04 11.6 52.9 68 5.8 42.5
23:30 1019 30.09 848 25.04 11.4 52.5 69 5.9 42.6
23:35 1019 30.09 848 25.04 11.3 52.4 69 5.8 42.5
23:40 1019 30.09 848 25.04 11.5 52.6 68 5.9 42.5
23:45 1019 30.09 848 25.04 11.6 53 67 5.7 42.3
23:50 1019 30.09 849 25.07 11.7 53.1 67 5.8 42.5
23:55 1019 30.09 849 25.07 11.6 52.8 68 5.9 42.6
24:00 1019 30.09 849 25.07 11.4 52.4 69 5.9 42.6